sensor_id;sensor_type;location;lat;lon;timestamp;pressure;altitude;pressure_sealevel;temperature;humidity
70304;BME280;57712;48.752;11.348;2023-04-27T00:01:17;97631.81;;;6.95;100.00
70304;BME280;57712;48.752;11.348;2023-04-27T00:03:44;97631.81;;;6.95;100.00
70304;BME280;57712;48.752;11.348;2023-04-27T00:06:11;97628.72;;;6.93;100.00
70304;BME280;57712;48.752;11.348;2023-04-27T00:08:38;97635.72;;;6.91;100.00
70304;BME280;57712;48.752;11.348;2023-04-27T00:11:05;97637.28;;;6.85;100.00
70304;BME280;57712;48.752;11.348;2023-04-27T00:13:32;97635.34;;;6.89;100.00
70304;BME280;57712;48.752;11.348;2023-04-27T00:15:59;97641.56;;;6.86;100.00
70304;BME280;57712;48.752;11.348;2023-04-27T00:18:29;97631.06;;;6.84;100.00
70304;BME280;57712;48.752;11.348;2023-04-27T00:20:56;97635.34;;;6.82;100.00
70304;BME280;57712;48.752;11.348;2023-04-27T00:23:23;97648.56;;;6.83;100.00
70304;BME280;57712;48.752;11.348;2023-04-27T00:25:50;97639.22;;;6.84;100.00
70304;BME280;57712;48.752;11.348;2023-04-27T00:28:17;97641.16;;;6.87;100.00
70304;BME280;57712;48.752;11.348;2023-04-27T00:30:43;97640.41;;;6.80;100.00
70304;BME280;57712;48.752;11.348;2023-04-27T00:33:10;97639.22;;;6.84;100.00
70304;BME280;57712;48.752;11.348;2023-04-27T00:35:37;97625.63;;;6.88;100.00
70304;BME280;57712;48.752;11.348;2023-04-27T00:38:03;97633.00;;;6.73;100.00
70304;BME280;57712;48.752;11.348;2023-04-27T00:40:30;97631.06;;;6.81;100.00
70304;BME280;57712;48.752;11.348;2023-04-27T00:42:57;97625.63;;;6.74;100.00
70304;BME280;57712;48.752;11.348;2023-04-27T00:45:23;97627.19;;;6.75;100.00
70304;BME280;57712;48.752;11.348;2023-04-27T00:47:50;97619.41;;;6.73;100.00
70304;BME280;57712;48.752;11.348;2023-04-27T00:50:26;97627.19;;;6.71;100.00
70304;BME280;57712;48.752;11.348;2023-04-27T00:52:53;97621.72;;;6.64;100.00
70304;BME280;57712;48.752;11.348;2023-04-27T00:55:20;97613.56;;;6.64;100.00
70304;BME280;57712;48.752;11.348;2023-04-27T00:57:47;97611.25;;;6.59;100.00
70304;BME280;57712;48.752;11.348;2023-04-27T01:00:13;97606.19;;;6.61;100.00
70304;BME280;57712;48.752;11.348;2023-04-27T01:02:41;97610.84;;;6.64;100.00
70304;BME280;57712;48.752;11.348;2023-04-27T01:05:08;97604.25;;;6.58;100.00
70304;BME280;57712;48.752;11.348;2023-04-27T01:07:38;97613.19;;;6.55;100.00
70304;BME280;57712;48.752;11.348;2023-04-27T01:10:06;97612.41;;;6.58;100.00
70304;BME280;57712;48.752;11.348;2023-04-27T01:12:33;97610.06;;;6.53;100.00
70304;BME280;57712;48.752;11.348;2023-04-27T01:15:00;97617.84;;;6.51;100.00
70304;BME280;57712;48.752;11.348;2023-04-27T01:17:26;97607.75;;;6.55;100.00
70304;BME280;57712;48.752;11.348;2023-04-27T01:19:53;97614.75;;;6.52;100.00
70304;BME280;57712;48.752;11.348;2023-04-27T01:22:22;97610.84;;;6.39;100.00
70304;BME280;57712;48.752;11.348;2023-04-27T01:24:48;97617.88;;;6.47;100.00
70304;BME280;57712;48.752;11.348;2023-04-27T01:27:15;97607.75;;;6.41;100.00
70304;BME280;57712;48.752;11.348;2023-04-27T01:29:44;97609.28;;;6.34;100.00
70304;BME280;57712;48.752;11.348;2023-04-27T01:32:11;97617.47;;;6.42;100.00
70304;BME280;57712;48.752;11.348;2023-04-27T01:34:38;97613.97;;;6.41;100.00
70304;BME280;57712;48.752;11.348;2023-04-27T01:37:04;97608.50;;;6.45;100.00
70304;BME280;57712;48.752;11.348;2023-04-27T01:39:31;97610.47;;;6.41;100.00
70304;BME280;57712;48.752;11.348;2023-04-27T01:41:58;97612.41;;;6.40;100.00
70304;BME280;57712;48.752;11.348;2023-04-27T01:44:25;97613.19;;;6.41;100.00
70304;BME280;57712;48.752;11.348;2023-04-27T01:46:51;97617.09;;;6.47;100.00
70304;BME280;57712;48.752;11.348;2023-04-27T01:49:18;97607.75;;;6.37;100.00
70304;BME280;57712;48.752;11.348;2023-04-27T01:51:45;97609.69;;;6.36;100.00
70304;BME280;57712;48.752;11.348;2023-04-27T01:54:11;97608.50;;;6.34;100.00
70304;BME280;57712;48.752;11.348;2023-04-27T01:56:38;97606.56;;;6.34;100.00
70304;BME280;57712;48.752;11.348;2023-04-27T01:59:05;97611.63;;;6.29;100.00
70304;BME280;57712;48.752;11.348;2023-04-27T02:01:31;97613.16;;;6.23;100.00
70304;BME280;57712;48.752;11.348;2023-04-27T02:03:58;97615.09;;;6.08;100.00
70304;BME280;57712;48.752;11.348;2023-04-27T02:06:25;97608.09;;;6.11;100.00
70304;BME280;57712;48.752;11.348;2023-04-27T02:08:53;97615.47;;;6.03;100.00
70304;BME280;57712;48.752;11.348;2023-04-27T02:11:19;97618.97;;;6.03;100.00
70304;BME280;57712;48.752;11.348;2023-04-27T02:13:47;97616.25;;;6.00;100.00
70304;BME280;57712;48.752;11.348;2023-04-27T02:16:14;97615.06;;;5.94;100.00
70304;BME280;57712;48.752;11.348;2023-04-27T02:18:41;97627.44;;;5.88;100.00
70304;BME280;57712;48.752;11.348;2023-04-27T02:21:08;97620.06;;;5.88;100.00
70304;BME280;57712;48.752;11.348;2023-04-27T02:23:36;97627.84;;;5.86;100.00
70304;BME280;57712;48.752;11.348;2023-04-27T02:26:02;97623.16;;;5.83;100.00
70304;BME280;57712;48.752;11.348;2023-04-27T02:28:29;97628.56;;;5.72;100.00
70304;BME280;57712;48.752;11.348;2023-04-27T02:30:57;97620.41;;;5.72;100.00
70304;BME280;57712;48.752;11.348;2023-04-27T02:33:24;97624.66;;;5.66;100.00
70304;BME280;57712;48.752;11.348;2023-04-27T02:35:50;97625.41;;;5.60;100.00
70304;BME280;57712;48.752;11.348;2023-04-27T02:38:17;97615.69;;;5.55;100.00
70304;BME280;57712;48.752;11.348;2023-04-27T02:40:44;97620.31;;;5.51;100.00
70304;BME280;57712;48.752;11.348;2023-04-27T02:43:10;97623.00;;;5.40;100.00
70304;BME280;57712;48.752;11.348;2023-04-27T02:45:37;97620.28;;;5.40;100.00
70304;BME280;57712;48.752;11.348;2023-04-27T02:48:04;97620.66;;;5.39;100.00
70304;BME280;57712;48.752;11.348;2023-04-27T02:50:31;97617.56;;;5.33;100.00
70304;BME280;57712;48.752;11.348;2023-04-27T02:52:57;97621.41;;;5.29;100.00
70304;BME280;57712;48.752;11.348;2023-04-27T02:55:25;97623.31;;;5.21;100.00
70304;BME280;57712;48.752;11.348;2023-04-27T02:57:52;97621.72;;;5.16;100.00
70304;BME280;57712;48.752;11.348;2023-04-27T03:00:19;97624.81;;;5.11;100.00
70304;BME280;57712;48.752;11.348;2023-04-27T03:02:46;97624.31;;;4.99;100.00
70304;BME280;57712;48.752;11.348;2023-04-27T03:05:13;97623.53;;;4.98;100.00
70304;BME280;57712;48.752;11.348;2023-04-27T03:07:39;97621.59;;;4.95;100.00
70304;BME280;57712;48.752;11.348;2023-04-27T03:10:06;97626.59;;;4.89;100.00
70304;BME280;57712;48.752;11.348;2023-04-27T03:12:33;97615.66;;;4.79;100.00
70304;BME280;57712;48.752;11.348;2023-04-27T03:15:00;97615.97;;;4.67;100.00
70304;BME280;57712;48.752;11.348;2023-04-27T03:17:27;97612.53;;;4.70;100.00
70304;BME280;57712;48.752;11.348;2023-04-27T03:19:54;97624.88;;;4.63;100.00
70304;BME280;57712;48.752;11.348;2023-04-27T03:22:21;97626.34;;;4.57;100.00
70304;BME280;57712;48.752;11.348;2023-04-27T03:24:47;97635.63;;;4.53;100.00
70304;BME280;57712;48.752;11.348;2023-04-27T03:27:14;97639.50;;;4.48;100.00
70304;BME280;57712;48.752;11.348;2023-04-27T03:29:41;97642.50;;;4.40;100.00
70304;BME280;57712;48.752;11.348;2023-04-27T03:32:07;97644.44;;;4.39;100.00
70304;BME280;57712;48.752;11.348;2023-04-27T03:34:34;97646.72;;;4.37;100.00
70304;BME280;57712;48.752;11.348;2023-04-27T03:37:02;97649.00;;;4.28;100.00
70304;BME280;57712;48.752;11.348;2023-04-27T03:39:28;97648.91;;;4.21;100.00
70304;BME280;57712;48.752;11.348;2023-04-27T03:41:55;97651.16;;;4.12;100.00
70304;BME280;57712;48.752;11.348;2023-04-27T03:44:22;97652.38;;;4.18;100.00
70304;BME280;57712;48.752;11.348;2023-04-27T03:46:49;97652.38;;;4.18;100.00
70304;BME280;57712;48.752;11.348;2023-04-27T03:49:16;97650.38;;;4.15;100.00
70304;BME280;57712;48.752;11.348;2023-04-27T03:51:43;97654.66;;;4.16;100.00
70304;BME280;57712;48.752;11.348;2023-04-27T03:54:10;97665.50;;;4.16;100.00
70304;BME280;57712;48.752;11.348;2023-04-27T03:56:36;97663.06;;;4.03;100.00
70304;BME280;57712;48.752;11.348;2023-04-27T03:59:04;97662.84;;;4.19;100.00
70304;BME280;57712;48.752;11.348;2023-04-27T04:01:30;97667.91;;;4.21;100.00
70304;BME280;57712;48.752;11.348;2023-04-27T04:03:57;97676.44;;;4.23;100.00
70304;BME280;57712;48.752;11.348;2023-04-27T04:06:24;97674.06;;;4.18;100.00
70304;BME280;57712;48.752;11.348;2023-04-27T04:08:51;97679.53;;;4.25;100.00
70304;BME280;57712;48.752;11.348;2023-04-27T04:11:18;97688.50;;;4.29;100.00
70304;BME280;57712;48.752;11.348;2023-04-27T04:13:44;97688.06;;;4.27;100.00
70304;BME280;57712;48.752;11.348;2023-04-27T04:16:11;97689.69;;;4.31;100.00
70304;BME280;57712;48.752;11.348;2023-04-27T04:18:39;97686.19;;;4.31;100.00
70304;BME280;57712;48.752;11.348;2023-04-27T04:21:05;97689.66;;;4.28;100.00
70304;BME280;57712;48.752;11.348;2023-04-27T04:23:32;97691.34;;;4.43;100.00
70304;BME280;57712;48.752;11.348;2023-04-27T04:25:59;97686.69;;;4.44;100.00
70304;BME280;57712;48.752;11.348;2023-04-27T04:28:27;97684.44;;;4.49;100.00
70304;BME280;57712;48.752;11.348;2023-04-27T04:30:54;97687.94;;;4.53;100.00
70304;BME280;57712;48.752;11.348;2023-04-27T04:33:22;97683.78;;;4.63;100.00
70304;BME280;57712;48.752;11.348;2023-04-27T04:35:49;97686.97;;;4.76;100.00
70304;BME280;57712;48.752;11.348;2023-04-27T04:38:17;97693.97;;;4.77;100.00
70304;BME280;57712;48.752;11.348;2023-04-27T04:40:43;97692.09;;;4.88;100.00
70304;BME280;57712;48.752;11.348;2023-04-27T04:43:11;97684.72;;;4.85;100.00
70304;BME280;57712;48.752;11.348;2023-04-27T04:45:38;97684.03;;;4.95;100.00
70304;BME280;57712;48.752;11.348;2023-04-27T04:48:05;97685.66;;;5.03;100.00
70304;BME280;57712;48.752;11.348;2023-04-27T04:50:32;97681.06;;;5.14;100.00
70304;BME280;57712;48.752;11.348;2023-04-27T04:52:58;97684.16;;;5.16;100.00
70304;BME280;57712;48.752;11.348;2023-04-27T04:55:25;97696.66;;;5.28;100.00
70304;BME280;57712;48.752;11.348;2023-04-27T04:57:53;97696.66;;;5.25;100.00
70304;BME280;57712;48.752;11.348;2023-04-27T05:00:20;97699.06;;;5.40;100.00
70304;BME280;57712;48.752;11.348;2023-04-27T05:02:47;97700.66;;;5.45;100.00
70304;BME280;57712;48.752;11.348;2023-04-27T05:05:15;97708.06;;;5.55;100.00
70304;BME280;57712;48.752;11.348;2023-04-27T05:07:42;97705.81;;;5.64;100.00
70304;BME280;57712;48.752;11.348;2023-04-27T05:10:08;97698.44;;;5.68;100.00
70304;BME280;57712;48.752;11.348;2023-04-27T05:12:35;97689.16;;;5.76;100.00
70304;BME280;57712;48.752;11.348;2023-04-27T05:15:03;97693.03;;;5.83;100.00
70304;BME280;57712;48.752;11.348;2023-04-27T05:17:30;97700.50;;;5.93;100.00
70304;BME280;57712;48.752;11.348;2023-04-27T05:19:57;97701.72;;;6.06;100.00
70304;BME280;57712;48.752;11.348;2023-04-27T05:22:23;97701.75;;;6.20;100.00
70304;BME280;57712;48.752;11.348;2023-04-27T05:24:50;97699.81;;;6.21;100.00
70304;BME280;57712;48.752;11.348;2023-04-27T05:27:17;97698.22;;;6.09;100.00
70304;BME280;57712;48.752;11.348;2023-04-27T05:29:43;97702.53;;;6.17;100.00
70304;BME280;57712;48.752;11.348;2023-04-27T05:32:10;97705.28;;;6.31;100.00
70304;BME280;57712;48.752;11.348;2023-04-27T05:34:37;97700.63;;;6.43;100.00
70304;BME280;57712;48.752;11.348;2023-04-27T05:37:03;97701.06;;;6.59;100.00
70304;BME280;57712;48.752;11.348;2023-04-27T05:39:30;97713.50;;;6.60;100.00
70304;BME280;57712;48.752;11.348;2023-04-27T05:41:57;97715.84;;;6.76;100.00
70304;BME280;57712;48.752;11.348;2023-04-27T05:44:24;97725.94;;;6.75;100.00
70304;BME280;57712;48.752;11.348;2023-04-27T05:46:54;97725.56;;;6.94;100.00
70304;BME280;57712;48.752;11.348;2023-04-27T05:49:22;97722.09;;;6.80;100.00
70304;BME280;57712;48.752;11.348;2023-04-27T05:51:48;97718.97;;;7.06;100.00
70304;BME280;57712;48.752;11.348;2023-04-27T05:54:15;97723.22;;;7.18;100.00
70304;BME280;57712;48.752;11.348;2023-04-27T05:56:42;97716.59;;;7.19;100.00
70304;BME280;57712;48.752;11.348;2023-04-27T05:59:08;97718.94;;;7.31;100.00
70304;BME280;57712;48.752;11.348;2023-04-27T06:01:35;97724.78;;;7.40;100.00
70304;BME280;57712;48.752;11.348;2023-04-27T06:04:02;97722.03;;;7.37;100.00
70304;BME280;57712;48.752;11.348;2023-04-27T06:06:33;97720.47;;;7.39;100.00
70304;BME280;57712;48.752;11.348;2023-04-27T06:09:00;97714.22;;;7.49;100.00
70304;BME280;57712;48.752;11.348;2023-04-27T06:11:27;97713.00;;;7.68;100.00
70304;BME280;57712;48.752;11.348;2023-04-27T06:13:54;97722.72;;;7.80;100.00
70304;BME280;57712;48.752;11.348;2023-04-27T06:16:20;97732.03;;;7.93;100.00
70304;BME280;57712;48.752;11.348;2023-04-27T06:18:49;97723.03;;;8.00;100.00
70304;BME280;57712;48.752;11.348;2023-04-27T06:21:16;97726.06;;;8.20;100.00
70304;BME280;57712;48.752;11.348;2023-04-27T06:23:42;97728.06;;;8.08;100.00
70304;BME280;57712;48.752;11.348;2023-04-27T06:26:09;97727.19;;;8.29;100.00
70304;BME280;57712;48.752;11.348;2023-04-27T06:28:36;97733.09;;;8.21;100.00
70304;BME280;57712;48.752;11.348;2023-04-27T06:31:04;97731.91;;;8.22;100.00
70304;BME280;57712;48.752;11.348;2023-04-27T06:33:33;97729.53;;;8.38;100.00
70304;BME280;57712;48.752;11.348;2023-04-27T06:36:00;97737.75;;;8.34;100.00
70304;BME280;57712;48.752;11.348;2023-04-27T06:38:27;97748.16;;;8.50;100.00
70304;BME280;57712;48.752;11.348;2023-04-27T06:40:54;97748.94;;;8.51;100.00
70304;BME280;57712;48.752;11.348;2023-04-27T06:43:20;97755.25;;;8.44;100.00
70304;BME280;57712;48.752;11.348;2023-04-27T06:45:47;97750.44;;;8.62;100.00
70304;BME280;57712;48.752;11.348;2023-04-27T06:48:14;97750.38;;;8.77;100.00
70304;BME280;57712;48.752;11.348;2023-04-27T06:50:41;97754.09;;;9.01;100.00
70304;BME280;57712;48.752;11.348;2023-04-27T06:53:08;97754.16;;;8.90;100.00
70304;BME280;57712;48.752;11.348;2023-04-27T06:55:35;97756.06;;;9.00;100.00
70304;BME280;57712;48.752;11.348;2023-04-27T06:58:02;97750.69;;;8.82;100.00
70304;BME280;57712;48.752;11.348;2023-04-27T07:00:29;97752.66;;;8.82;100.00
70304;BME280;57712;48.752;11.348;2023-04-27T07:02:56;97747.94;;;8.89;100.00
70304;BME280;57712;48.752;11.348;2023-04-27T07:05:23;97743.66;;;9.33;100.00
70304;BME280;57712;48.752;11.348;2023-04-27T07:07:49;97745.00;;;9.14;100.00
70304;BME280;57712;48.752;11.348;2023-04-27T07:10:16;97749.53;;;9.32;100.00
70304;BME280;57712;48.752;11.348;2023-04-27T07:12:43;97737.16;;;9.16;100.00
70304;BME280;57712;48.752;11.348;2023-04-27T07:15:10;97738.03;;;9.51;100.00
70304;BME280;57712;48.752;11.348;2023-04-27T07:17:37;97748.91;;;9.58;100.00
70304;BME280;57712;48.752;11.348;2023-04-27T07:20:07;97742.25;;;9.97;100.00
70304;BME280;57712;48.752;11.348;2023-04-27T07:22:34;97742.41;;;10.17;100.00
70304;BME280;57712;48.752;11.348;2023-04-27T07:25:01;97740.94;;;9.74;100.00
70304;BME280;57712;48.752;11.348;2023-04-27T07:27:29;97739.31;;;9.77;100.00
70304;BME280;57712;48.752;11.348;2023-04-27T07:29:57;97742.47;;;9.75;100.00
70304;BME280;57712;48.752;11.348;2023-04-27T07:32:24;97737.88;;;10.03;100.00
70304;BME280;57712;48.752;11.348;2023-04-27T07:34:54;97730.59;;;9.89;100.00
70304;BME280;57712;48.752;11.348;2023-04-27T07:37:21;97740.25;;;10.01;100.00
70304;BME280;57712;48.752;11.348;2023-04-27T07:39:49;97747.41;;;10.25;100.00
70304;BME280;57712;48.752;11.348;2023-04-27T07:42:18;97742.84;;;10.46;100.00
70304;BME280;57712;48.752;11.348;2023-04-27T07:44:45;97742.50;;;10.40;100.00
70304;BME280;57712;48.752;11.348;2023-04-27T07:47:11;97747.31;;;10.32;100.00
70304;BME280;57712;48.752;11.348;2023-04-27T07:49:38;97754.63;;;10.69;100.00
70304;BME280;57712;48.752;11.348;2023-04-27T07:52:05;97741.13;;;10.82;100.00
70304;BME280;57712;48.752;11.348;2023-04-27T07:54:33;97751.28;;;10.85;100.00
70304;BME280;57712;48.752;11.348;2023-04-27T07:56:59;97749.75;;;10.84;100.00
70304;BME280;57712;48.752;11.348;2023-04-27T07:59:28;97754.00;;;11.12;100.00
70304;BME280;57712;48.752;11.348;2023-04-27T08:01:56;97758.59;;;11.19;100.00
70304;BME280;57712;48.752;11.348;2023-04-27T08:04:43;97761.09;;;11.33;100.00
70304;BME280;57712;48.752;11.348;2023-04-27T08:07:10;97758.03;;;11.04;100.00
70304;BME280;57712;48.752;11.348;2023-04-27T08:09:38;97763.81;;;10.86;100.00
70304;BME280;57712;48.752;11.348;2023-04-27T08:12:04;97768.50;;;10.86;100.00
70304;BME280;57712;48.752;11.348;2023-04-27T08:14:33;97769.41;;;11.30;100.00
70304;BME280;57712;48.752;11.348;2023-04-27T08:17:00;97768.78;;;11.18;100.00
70304;BME280;57712;48.752;11.348;2023-04-27T08:19:27;97762.03;;;10.99;100.00
70304;BME280;57712;48.752;11.348;2023-04-27T08:21:54;97768.38;;;10.93;98.77
70304;BME280;57712;48.752;11.348;2023-04-27T08:24:21;97776.19;;;11.45;100.00
70304;BME280;57712;48.752;11.348;2023-04-27T08:26:48;97769.81;;;11.05;99.75
70304;BME280;57712;48.752;11.348;2023-04-27T08:29:14;97761.88;;;11.34;100.00
70304;BME280;57712;48.752;11.348;2023-04-27T08:31:53;97764.69;;;11.30;100.00
70304;BME280;57712;48.752;11.348;2023-04-27T08:34:22;97767.66;;;11.39;97.88
70304;BME280;57712;48.752;11.348;2023-04-27T08:36:49;97758.00;;;11.54;100.00
70304;BME280;57712;48.752;11.348;2023-04-27T08:39:15;97767.66;;;11.63;93.26
70304;BME280;57712;48.752;11.348;2023-04-27T08:41:45;97761.97;;;12.17;92.03
70304;BME280;57712;48.752;11.348;2023-04-27T08:44:12;97761.47;;;11.82;90.75
70304;BME280;57712;48.752;11.348;2023-04-27T08:46:39;97756.53;;;11.93;100.00
70304;BME280;57712;48.752;11.348;2023-04-27T08:49:06;97760.88;;;12.50;90.46
70304;BME280;57712;48.752;11.348;2023-04-27T08:51:33;97754.16;;;12.35;86.11
70304;BME280;57712;48.752;11.348;2023-04-27T08:54:00;97749.66;;;12.05;79.45
70304;BME280;57712;48.752;11.348;2023-04-27T08:56:28;97753.50;;;12.47;82.91
70304;BME280;57712;48.752;11.348;2023-04-27T08:58:56;97764.03;;;12.68;78.97
70304;BME280;57712;48.752;11.348;2023-04-27T09:01:23;97755.28;;;12.74;78.55
70304;BME280;57712;48.752;11.348;2023-04-27T09:03:56;97767.56;;;12.49;81.11
70304;BME280;57712;48.752;11.348;2023-04-27T09:06:34;97759.28;;;13.05;77.10
70304;BME280;57712;48.752;11.348;2023-04-27T09:09:02;97763.94;;;13.57;77.14
70304;BME280;57712;48.752;11.348;2023-04-27T09:11:38;97762.50;;;13.81;87.16
70304;BME280;57712;48.752;11.348;2023-04-27T09:14:17;97759.03;;;13.94;74.68
70304;BME280;57712;48.752;11.348;2023-04-27T09:16:44;97761.25;;;14.28;70.88
70304;BME280;57712;48.752;11.348;2023-04-27T09:19:22;97759.03;;;14.23;73.63
70304;BME280;57712;48.752;11.348;2023-04-27T09:21:49;97754.75;;;14.34;62.84
70304;BME280;57712;48.752;11.348;2023-04-27T09:24:17;97755.63;;;14.31;63.34
70304;BME280;57712;48.752;11.348;2023-04-27T09:26:48;97749.22;;;14.63;57.71
70304;BME280;57712;48.752;11.348;2023-04-27T09:29:15;97748.59;;;14.30;64.91
70304;BME280;57712;48.752;11.348;2023-04-27T09:31:42;97747.22;;;14.77;64.37
70304;BME280;57712;48.752;11.348;2023-04-27T09:34:09;97740.50;;;14.65;70.13
70304;BME280;57712;48.752;11.348;2023-04-27T09:36:36;97740.28;;;14.18;58.84
70304;BME280;57712;48.752;11.348;2023-04-27T09:39:03;97738.84;;;14.67;63.23
70304;BME280;57712;48.752;11.348;2023-04-27T09:41:31;97735.56;;;14.72;57.69
70304;BME280;57712;48.752;11.348;2023-04-27T09:43:58;97737.22;;;14.95;57.27
70304;BME280;57712;48.752;11.348;2023-04-27T09:46:27;97725.63;;;14.88;59.52
70304;BME280;57712;48.752;11.348;2023-04-27T09:48:55;97725.53;;;14.91;52.94
70304;BME280;57712;48.752;11.348;2023-04-27T09:51:24;97722.22;;;14.71;54.38
70304;BME280;57712;48.752;11.348;2023-04-27T09:53:53;97726.81;;;15.12;66.48
70304;BME280;57712;48.752;11.348;2023-04-27T09:56:51;97725.03;;;15.78;64.30
70304;BME280;57712;48.752;11.348;2023-04-27T10:01:58;97715.38;;;15.83;48.88
70304;BME280;57712;48.752;11.348;2023-04-27T10:05:01;97712.06;;;15.88;47.13
70304;BME280;57712;48.752;11.348;2023-04-27T10:07:37;97707.13;;;16.36;43.49
70304;BME280;57712;48.752;11.348;2023-04-27T10:10:05;97706.78;;;16.87;42.07
70304;BME280;57712;48.752;11.348;2023-04-27T10:12:34;97704.75;;;16.47;44.16
70304;BME280;57712;48.752;11.348;2023-04-27T10:15:12;97705.38;;;17.31;45.68
70304;BME280;57712;48.752;11.348;2023-04-27T10:17:46;97705.25;;;16.86;39.63
70304;BME280;57712;48.752;11.348;2023-04-27T10:20:14;97704.63;;;17.31;47.25
70304;BME280;57712;48.752;11.348;2023-04-27T10:22:45;97707.31;;;17.03;40.68
70304;BME280;57712;48.752;11.348;2023-04-27T10:25:22;97703.84;;;17.40;40.63
70304;BME280;57712;48.752;11.348;2023-04-27T10:27:52;97698.03;;;17.65;41.22
70304;BME280;57712;48.752;11.348;2023-04-27T10:30:24;97699.13;;;18.13;47.26
70304;BME280;57712;48.752;11.348;2023-04-27T10:32:56;97705.50;;;17.10;42.00
70304;BME280;57712;48.752;11.348;2023-04-27T10:38:10;97707.25;;;18.87;43.53
70304;BME280;57712;48.752;11.348;2023-04-27T10:40:40;97705.56;;;18.10;46.26
70304;BME280;57712;48.752;11.348;2023-04-27T10:43:16;97709.09;;;17.47;40.38
70304;BME280;57712;48.752;11.348;2023-04-27T10:45:43;97698.16;;;18.26;39.02
70304;BME280;57712;48.752;11.348;2023-04-27T10:48:13;97696.50;;;20.14;42.18
70304;BME280;57712;48.752;11.348;2023-04-27T10:50:43;97685.38;;;18.80;40.09
70304;BME280;57712;48.752;11.348;2023-04-27T10:53:10;97691.47;;;17.72;39.91
70304;BME280;57712;48.752;11.348;2023-04-27T10:55:37;97683.84;;;18.18;40.81
70304;BME280;57712;48.752;11.348;2023-04-27T10:58:04;97678.50;;;17.96;41.21
70304;BME280;57712;48.752;11.348;2023-04-27T11:00:38;97680.31;;;17.35;41.70
70304;BME280;57712;48.752;11.348;2023-04-27T11:03:22;97676.47;;;17.42;43.60
70304;BME280;57712;48.752;11.348;2023-04-27T11:05:59;97682.63;;;18.01;44.32
70304;BME280;57712;48.752;11.348;2023-04-27T11:08:26;97677.84;;;18.01;42.16
70304;BME280;57712;48.752;11.348;2023-04-27T11:10:53;97682.06;;;18.57;40.75
70304;BME280;57712;48.752;11.348;2023-04-27T11:13:22;97684.53;;;18.55;41.87
70304;BME280;57712;48.752;11.348;2023-04-27T11:15:57;97687.88;;;17.71;40.69
70304;BME280;57712;48.752;11.348;2023-04-27T11:18:26;97689.44;;;17.81;42.49
70304;BME280;57712;48.752;11.348;2023-04-27T11:21:15;97682.78;;;18.06;46.10
70304;BME280;57712;48.752;11.348;2023-04-27T11:23:43;97690.41;;;18.90;43.12
70304;BME280;57712;48.752;11.348;2023-04-27T11:26:17;97692.13;;;18.88;40.72
70304;BME280;57712;48.752;11.348;2023-04-27T11:28:58;97688.75;;;18.32;45.66
70304;BME280;57712;48.752;11.348;2023-04-27T11:31:47;97690.31;;;18.24;44.06
70304;BME280;57712;48.752;11.348;2023-04-27T11:34:19;97680.50;;;17.86;40.97
70304;BME280;57712;48.752;11.348;2023-04-27T11:37:04;97676.66;;;18.54;44.70
70304;BME280;57712;48.752;11.348;2023-04-27T11:39:44;97679.75;;;18.56;41.34
70304;BME280;57712;48.752;11.348;2023-04-27T11:42:25;97676.81;;;17.71;40.48
70304;BME280;57712;48.752;11.348;2023-04-27T11:44:54;97681.41;;;17.47;43.97
70304;BME280;57712;48.752;11.348;2023-04-27T11:47:22;97670.59;;;17.21;45.20
70304;BME280;57712;48.752;11.348;2023-04-27T11:49:51;97679.31;;;16.61;44.06
70304;BME280;57712;48.752;11.348;2023-04-27T11:52:21;97685.81;;;16.14;48.07
70304;BME280;57712;48.752;11.348;2023-04-27T11:54:52;97680.00;;;15.56;46.17
70304;BME280;57712;48.752;11.348;2023-04-27T11:57:26;97683.53;;;16.44;45.69
70304;BME280;57712;48.752;11.348;2023-04-27T11:59:54;97688.69;;;16.33;43.62
70304;BME280;57712;48.752;11.348;2023-04-27T12:02:21;97680.81;;;16.22;44.52
70304;BME280;57712;48.752;11.348;2023-04-27T12:04:49;97679.00;;;16.59;42.95
70304;BME280;57712;48.752;11.348;2023-04-27T12:07:17;97669.47;;;15.98;44.37
70304;BME280;57712;48.752;11.348;2023-04-27T12:09:45;97669.16;;;16.58;45.80
70304;BME280;57712;48.752;11.348;2023-04-27T12:12:15;97673.25;;;18.59;41.74
70304;BME280;57712;48.752;11.348;2023-04-27T12:14:48;97666.00;;;18.61;39.03
70304;BME280;57712;48.752;11.348;2023-04-27T12:17:15;97658.84;;;19.12;40.31
70304;BME280;57712;48.752;11.348;2023-04-27T12:19:42;97670.09;;;18.84;41.22
70304;BME280;57712;48.752;11.348;2023-04-27T12:22:08;97673.72;;;19.71;41.57
70304;BME280;57712;48.752;11.348;2023-04-27T12:24:35;97677.78;;;20.00;37.90
70304;BME280;57712;48.752;11.348;2023-04-27T12:27:03;97681.47;;;19.19;40.96
70304;BME280;57712;48.752;11.348;2023-04-27T12:29:30;97672.69;;;18.45;37.62
70304;BME280;57712;48.752;11.348;2023-04-27T12:31:58;97679.53;;;17.35;42.57
70304;BME280;57712;48.752;11.348;2023-04-27T12:34:25;97676.44;;;17.23;44.35
70304;BME280;57712;48.752;11.348;2023-04-27T12:36:52;97678.13;;;17.12;43.82
70304;BME280;57712;48.752;11.348;2023-04-27T12:39:22;97666.53;;;16.55;43.25
70304;BME280;57712;48.752;11.348;2023-04-27T12:41:52;97670.47;;;17.52;46.29
70304;BME280;57712;48.752;11.348;2023-04-27T12:44:20;97665.78;;;16.63;42.14
70304;BME280;57712;48.752;11.348;2023-04-27T12:46:47;97668.72;;;16.29;43.93
70304;BME280;57712;48.752;11.348;2023-04-27T12:49:14;97666.81;;;16.16;43.18
70304;BME280;57712;48.752;11.348;2023-04-27T12:51:43;97661.25;;;16.69;42.46
70304;BME280;57712;48.752;11.348;2023-04-27T12:54:12;97666.03;;;17.55;45.50
70304;BME280;57712;48.752;11.348;2023-04-27T12:56:39;97658.47;;;16.69;46.72
70304;BME280;57712;48.752;11.348;2023-04-27T12:59:07;97654.09;;;16.59;41.97
70304;BME280;57712;48.752;11.348;2023-04-27T13:01:34;97661.66;;;17.17;41.96